createdAt,value
2022-08-05T00:02:38.862Z,18.67
2022-08-05T00:08:00.741Z,18.76
2022-08-05T00:13:04.901Z,18.70
2022-08-05T00:18:08.402Z,18.55
2022-08-05T00:23:12.962Z,18.46
2022-08-05T00:28:29.404Z,18.47
2022-08-05T00:34:53.307Z,18.37
2022-08-05T00:38:59.337Z,18.34
2022-08-05T00:44:03.386Z,18.29
2022-08-05T00:49:06.436Z,17.96
2022-08-05T01:06:33.888Z,17.87
2022-08-05T01:11:39.748Z,17.89
2022-08-05T01:17:00.481Z,17.88
2022-08-05T01:22:39.581Z,17.84
2022-08-05T01:28:13.845Z,17.78
2022-08-05T01:33:22.223Z,17.81
2022-08-05T01:38:30.562Z,17.75
2022-08-05T01:43:36.499Z,17.71
2022-08-05T01:48:49.599Z,17.74
2022-08-05T01:53:58.632Z,17.60
2022-08-05T01:59:09.421Z,17.64
2022-08-05T02:04:15.605Z,17.61
2022-08-05T02:09:20.706Z,17.52
2022-08-05T02:14:35.543Z,17.55
2022-08-05T02:19:47.597Z,17.42
2022-08-05T02:24:53.021Z,17.47
2022-08-05T02:29:59.054Z,17.40
2022-08-05T02:35:13.605Z,17.35
2022-08-05T02:40:19.508Z,17.19
2022-08-05T02:45:25.735Z,17.13
2022-08-05T02:50:30.161Z,17.19
2022-08-05T02:55:54.266Z,17.31
2022-08-05T03:01:01.136Z,17.26
2022-08-05T03:06:54.657Z,17.33
2022-08-05T03:11:54.979Z,17.23
2022-08-05T03:16:53.343Z,17.19
2022-08-05T03:21:57.496Z,17.11
2022-08-05T03:27:01.582Z,16.99
2022-08-05T03:32:06.883Z,16.85
2022-08-05T03:37:12.942Z,16.77
2022-08-05T03:42:17.593Z,16.84
2022-08-05T03:47:22.161Z,16.84
2022-08-05T03:52:50.492Z,16.93
2022-08-05T03:57:57.186Z,16.79
2022-08-05T04:03:03.331Z,16.82
2022-08-05T04:08:29.635Z,16.75
2022-08-05T04:13:51.273Z,16.68
2022-08-05T04:18:58.091Z,16.67
2022-08-05T04:24:07.021Z,16.74
2022-08-05T04:29:11.209Z,16.69
2022-08-05T04:34:29.578Z,16.90
2022-08-05T04:39:35.747Z,17.00
2022-08-05T04:44:39.847Z,17.05
2022-08-05T04:50:02.556Z,17.36
2022-08-05T04:55:14.171Z,17.53
2022-08-05T05:00:23.485Z,17.83
2022-08-05T05:05:29.095Z,18.16
2022-08-05T05:10:39.818Z,18.54
2022-08-05T05:15:56.890Z,18.98
2022-08-05T05:21:06.033Z,19.43
2022-08-05T05:26:09.419Z,19.92
2022-08-05T05:31:13.137Z,20.29
2022-08-05T05:36:16.579Z,20.65
2022-08-05T05:41:20.398Z,21.25
2022-08-05T05:46:23.440Z,21.72
2022-08-05T05:51:28.033Z,22.16
2022-08-05T05:56:34.793Z,22.36
2022-08-05T06:01:40.202Z,22.78
2022-08-05T06:06:47.291Z,23.41
2022-08-05T06:12:01.097Z,23.87
2022-08-05T06:17:24.192Z,24.28
2022-08-05T06:22:33.582Z,24.83
2022-08-05T06:28:12.623Z,26.85
2022-08-05T06:33:03.398Z,30.76
2022-08-05T06:38:10.082Z,32.63
2022-08-05T06:43:51.710Z,32.56
2022-08-05T06:48:53.531Z,33.04
2022-08-05T06:54:01.708Z,33.40
2022-08-05T06:59:08.467Z,33.78
2022-08-05T07:04:14.258Z,34.17
2022-08-05T07:09:19.627Z,33.34
2022-08-05T07:14:43.813Z,33.50
2022-08-05T07:25:53.811Z,33.11
2022-08-05T07:30:39.231Z,33.93
2022-08-05T07:36:02.437Z,33.34
2022-08-05T07:42:09.232Z,34.17
2022-08-05T07:46:33.776Z,34.39
2022-08-05T07:51:48.598Z,33.57
2022-08-05T07:57:01.414Z,33.76
2022-08-05T08:02:18.327Z,34.33
2022-08-05T08:07:23.164Z,33.80
2022-08-05T08:12:37.886Z,33.97
2022-08-05T08:17:53.042Z,34.36
2022-08-05T08:23:03.424Z,35.85
2022-08-05T08:28:07.193Z,35.68
2022-08-05T08:33:22.679Z,34.01
2022-08-05T08:38:35.293Z,35.12
2022-08-05T08:45:21.320Z,34.70
2022-08-05T08:50:23.391Z,35.05
2022-08-05T08:54:29.617Z,35.22
2022-08-05T08:59:33.558Z,33.39
2022-08-05T09:04:57.819Z,33.98
2022-08-05T09:10:02.042Z,33.83
2022-08-05T09:15:06.854Z,34.23
2022-08-05T09:20:11.869Z,34.86
2022-08-05T09:25:23.868Z,33.93
2022-08-05T09:31:01.156Z,32.35
2022-08-05T09:36:27.908Z,31.98
2022-08-05T09:42:05.039Z,32.30
2022-08-05T09:47:36.416Z,31.27
2022-08-05T09:52:58.217Z,31.84
2022-08-05T09:58:13.950Z,31.84
2022-08-05T10:03:17.142Z,31.13
2022-08-05T10:08:36.791Z,30.74
2022-08-05T10:13:47.314Z,30.39
2022-08-05T10:18:51.889Z,30.23
2022-08-05T10:23:59.600Z,30.32
2022-08-05T10:29:04.102Z,30.52
2022-08-05T10:34:11.096Z,29.86
2022-08-05T10:39:25.176Z,29.69
2022-08-05T10:44:46.018Z,29.35
2022-08-05T10:50:35.297Z,29.16
2022-08-05T10:56:03.232Z,29.25
2022-08-05T11:01:03.122Z,28.99
2022-08-05T11:06:15.230Z,28.97
2022-08-05T11:11:44.759Z,29.30
2022-08-05T11:17:57.837Z,30.32
2022-08-05T11:22:54.116Z,30.59
2022-08-05T11:28:17.219Z,30.68
2022-08-05T11:33:53.717Z,30.89
2022-08-05T11:38:57.844Z,30.62
2022-08-05T11:44:12.866Z,30.61
2022-08-05T11:49:36.424Z,30.51
2022-08-05T11:54:43.445Z,30.75
2022-08-05T11:59:51.844Z,30.99
2022-08-05T12:04:59.204Z,30.13
2022-08-05T12:10:09.667Z,30.27
2022-08-05T12:15:37.864Z,30.47
2022-08-05T12:20:42.151Z,30.68
2022-08-05T12:25:53.300Z,30.97
2022-08-05T12:30:58.333Z,30.70
2022-08-05T12:36:08.353Z,30.37
2022-08-05T12:41:16.625Z,30.07
2022-08-05T12:46:32.189Z,29.31
2022-08-05T12:52:14.331Z,29.05
2022-08-05T12:57:23.257Z,28.98
2022-08-05T13:02:30.763Z,29.18
2022-08-05T13:07:59.415Z,29.07
2022-08-05T13:12:58.602Z,28.80
2022-08-05T13:18:01.766Z,28.47
2022-08-05T13:23:07.088Z,28.41
2022-08-05T13:28:10.740Z,28.21
2022-08-05T13:34:20.162Z,28.03
2022-08-05T13:38:42.041Z,27.92
2022-08-05T13:43:54.809Z,27.60
2022-08-05T13:49:00.683Z,27.28
2022-08-05T13:54:12.267Z,27.07
2022-08-05T13:59:19.665Z,26.77
2022-08-05T14:04:42.324Z,26.55
2022-08-05T14:09:46.418Z,26.44
2022-08-05T14:14:51.465Z,26.54
2022-08-05T14:20:00.890Z,26.58
2022-08-05T14:25:21.839Z,26.48
2022-08-05T14:30:26.592Z,26.46
2022-08-05T14:35:50.294Z,26.47
2022-08-05T14:40:54.873Z,26.52
2022-08-05T14:45:58.360Z,26.63
2022-08-05T14:51:01.383Z,26.81
2022-08-05T14:56:06.896Z,26.93
2022-08-05T15:01:16.109Z,27.22
2022-08-05T15:06:27.946Z,27.40
2022-08-05T15:11:51.862Z,27.57
2022-08-05T15:16:56.573Z,27.78
2022-08-05T15:22:01.558Z,27.81
2022-08-05T15:27:04.951Z,27.57
2022-08-05T15:32:12.159Z,27.33
2022-08-05T15:37:19.385Z,27.58
2022-08-05T15:42:57.042Z,27.14
2022-08-05T15:48:02.958Z,26.59
2022-08-05T15:53:06.501Z,26.27
2022-08-05T15:58:16.419Z,26.18
2022-08-05T16:03:19.937Z,26.18
2022-08-05T16:08:23.982Z,26.33
2022-08-05T16:13:34.850Z,25.86
2022-08-05T16:18:52.557Z,25.47
2022-08-05T16:24:00.149Z,25.64
2022-08-05T16:29:05.991Z,25.60
2022-08-05T16:34:11.420Z,25.52
2022-08-05T16:39:15.401Z,25.49
2022-08-05T16:44:18.697Z,25.44
2022-08-05T16:49:24.120Z,25.44
2022-08-05T16:54:30.477Z,25.32
2022-08-05T17:00:01.493Z,25.24
2022-08-05T17:04:59.146Z,25.29
2022-08-05T17:10:02.864Z,25.17
2022-08-05T17:15:07.662Z,24.98
2022-08-05T17:20:14.860Z,24.85
2022-08-05T17:25:22.141Z,24.41
2022-08-05T17:30:42.738Z,24.73
2022-08-05T17:36:07.741Z,24.52
2022-08-05T17:42:18.567Z,24.19
2022-08-05T17:46:36.452Z,23.82
2022-08-05T17:51:40.425Z,23.42
2022-08-05T17:56:44.784Z,23.07
2022-08-05T18:01:52.258Z,22.72
2022-08-05T18:06:55.461Z,22.29
2022-08-05T18:12:03.792Z,21.89
2022-08-05T18:17:07.235Z,21.72
2022-08-05T18:22:36.195Z,21.44
2022-08-05T18:27:52.417Z,21.17
2022-08-05T18:33:00.975Z,20.99
2022-08-05T18:38:04.925Z,20.83
2022-08-05T18:43:09.140Z,20.60
2022-08-05T18:48:31.125Z,20.57
2022-08-05T18:53:42.973Z,20.53
2022-08-05T18:58:50.981Z,20.37
2022-08-05T19:03:57.940Z,20.25
2022-08-05T19:09:01.382Z,20.04
2022-08-05T19:14:15.310Z,19.97
2022-08-05T19:19:27.552Z,19.92
2022-08-05T19:24:35.101Z,19.91
2022-08-05T19:29:38.960Z,19.90
2022-08-05T19:34:42.077Z,19.84
2022-08-05T19:39:59.335Z,19.67
2022-08-05T19:45:02.939Z,19.60
2022-08-05T19:50:11.969Z,19.62
2022-08-05T19:56:14.088Z,19.59
2022-08-05T20:00:39.784Z,19.55
2022-08-05T20:05:51.179Z,19.55
2022-08-05T20:10:55.507Z,19.53
2022-08-05T20:15:59.689Z,19.40
2022-08-05T20:21:04.640Z,19.25
2022-08-05T20:26:16.351Z,19.25
2022-08-05T20:31:28.320Z,19.14
2022-08-05T20:36:43.319Z,19.08
2022-08-05T20:41:50.046Z,19.09
2022-08-05T20:46:53.253Z,19.08
2022-08-05T20:51:58.147Z,19.02
2022-08-05T20:57:03.376Z,18.91
2022-08-05T21:02:07.105Z,18.91
2022-08-05T21:07:10.262Z,19.00
2022-08-05T21:12:19.601Z,18.94
2022-08-05T21:17:22.770Z,18.90
2022-08-05T21:22:26.485Z,18.73
2022-08-05T21:27:38.670Z,18.65
2022-08-05T21:32:42.293Z,18.61
2022-08-05T21:37:47.195Z,18.56
2022-08-05T21:42:56.377Z,18.53
2022-08-05T21:48:06.315Z,18.56
2022-08-05T21:53:17.445Z,18.50
2022-08-05T21:58:30.834Z,18.58
2022-08-05T22:03:51.606Z,19.04
2022-08-05T22:08:56.931Z,18.93
2022-08-05T22:14:33.490Z,18.62
2022-08-05T22:20:02.180Z,18.47
2022-08-05T22:25:08.742Z,18.60
2022-08-05T22:30:21.890Z,18.88
2022-08-05T22:35:24.976Z,19.09
2022-08-05T22:40:30.677Z,18.96
2022-08-05T22:45:34.372Z,18.67
2022-08-05T22:50:40.841Z,18.61
2022-08-05T22:55:57.286Z,18.71
2022-08-05T23:01:02.824Z,18.91
2022-08-05T23:06:07.760Z,19.03
2022-08-05T23:11:13.871Z,19.09
2022-08-05T23:16:39.244Z,18.96
2022-08-05T23:21:48.557Z,18.63
2022-08-05T23:26:52.182Z,18.50
2022-08-05T23:31:56.454Z,18.39
2022-08-05T23:37:00.004Z,18.44
2022-08-05T23:42:04.006Z,18.33
2022-08-05T23:47:15.248Z,18.22
2022-08-05T23:52:31.988Z,18.10
2022-08-05T23:57:36.206Z,18.09
